sensor_id;sensor_type;location;lat;lon;timestamp;pressure;altitude;pressure_sealevel;temperature;humidity
45467;BME280;31212;49.734;8.490;2022-08-02T00:00:05;100685.72;;;18.90;75.76
45467;BME280;31212;49.734;8.490;2022-08-02T00:02:32;100684.81;;;18.89;75.95
45467;BME280;31212;49.734;8.490;2022-08-02T00:04:59;100683.97;;;18.89;76.09
45467;BME280;31212;49.734;8.490;2022-08-02T00:07:27;100682.22;;;18.88;76.19
45467;BME280;31212;49.734;8.490;2022-08-02T00:09:53;100684.09;;;18.82;76.39
45467;BME280;31212;49.734;8.490;2022-08-02T00:12:20;100693.97;;;18.74;76.61
45467;BME280;31212;49.734;8.490;2022-08-02T00:14:46;100691.56;;;18.66;76.88
45467;BME280;31212;49.734;8.490;2022-08-02T00:17:13;100704.84;;;18.60;77.44
45467;BME280;31212;49.734;8.490;2022-08-02T00:19:39;100704.81;;;18.62;77.80
45467;BME280;31212;49.734;8.490;2022-08-02T00:22:06;100703.06;;;18.61;77.75
45467;BME280;31212;49.734;8.490;2022-08-02T00:24:33;100689.16;;;18.57;78.14
45467;BME280;31212;49.734;8.490;2022-08-02T00:27:00;100694.66;;;18.48;78.11
45467;BME280;31212;49.734;8.490;2022-08-02T00:29:28;100691.78;;;18.57;78.17
45467;BME280;31212;49.734;8.490;2022-08-02T00:31:54;100689.44;;;18.46;78.36
45467;BME280;31212;49.734;8.490;2022-08-02T00:34:21;100700.94;;;18.41;78.66
45467;BME280;31212;49.734;8.490;2022-08-02T00:36:47;100711.53;;;18.38;78.98
45467;BME280;31212;49.734;8.490;2022-08-02T00:39:14;100716.97;;;18.31;79.22
45467;BME280;31212;49.734;8.490;2022-08-02T00:41:45;100716.97;;;18.31;79.28
45467;BME280;31212;49.734;8.490;2022-08-02T00:44:13;100720.47;;;18.30;79.24
45467;BME280;31212;49.734;8.490;2022-08-02T00:46:42;100717.84;;;18.30;79.53
45467;BME280;31212;49.734;8.490;2022-08-02T00:49:09;100728.38;;;18.30;79.69
45467;BME280;31212;49.734;8.490;2022-08-02T00:51:35;100730.03;;;18.35;79.95
45467;BME280;31212;49.734;8.490;2022-08-02T00:54:02;100722.91;;;18.40;79.49
45467;BME280;31212;49.734;8.490;2022-08-02T00:56:29;100729.94;;;18.38;79.97
45467;BME280;31212;49.734;8.490;2022-08-02T00:58:57;100737.78;;;18.39;80.21
45467;BME280;31212;49.734;8.490;2022-08-02T01:01:23;100736.28;;;18.29;80.71
45467;BME280;31212;49.734;8.490;2022-08-02T01:04:03;100740.88;;;18.21;81.11
45467;BME280;31212;49.734;8.490;2022-08-02T01:06:29;100743.59;;;18.16;81.39
45467;BME280;31212;49.734;8.490;2022-08-02T01:08:57;100738.34;;;18.16;81.22
45467;BME280;31212;49.734;8.490;2022-08-02T01:11:24;100741.94;;;18.12;81.64
45467;BME280;31212;49.734;8.490;2022-08-02T01:13:50;100739.47;;;18.04;81.83
45467;BME280;31212;49.734;8.490;2022-08-02T01:16:22;100751.81;;;18.01;82.14
45467;BME280;31212;49.734;8.490;2022-08-02T01:18:53;100733.38;;;18.04;81.94
45467;BME280;31212;49.734;8.490;2022-08-02T01:21:37;100739.66;;;17.96;81.91
45467;BME280;31212;49.734;8.490;2022-08-02T01:24:17;100734.41;;;17.96;82.30
45467;BME280;31212;49.734;8.490;2022-08-02T01:26:50;100744.16;;;17.90;82.33
45467;BME280;31212;49.734;8.490;2022-08-02T01:29:22;100741.59;;;17.85;82.67
45467;BME280;31212;49.734;8.490;2022-08-02T01:31:54;100745.19;;;17.81;82.92
45467;BME280;31212;49.734;8.490;2022-08-02T01:34:27;100741.75;;;17.77;83.17
45467;BME280;31212;49.734;8.490;2022-08-02T01:36:59;100748.88;;;17.74;83.53
45467;BME280;31212;49.734;8.490;2022-08-02T01:39:28;100739.44;;;17.63;83.48
45467;BME280;31212;49.734;8.490;2022-08-02T01:41:56;100743.00;;;17.61;84.00
45467;BME280;31212;49.734;8.490;2022-08-02T01:44:27;100733.38;;;17.60;83.70
45467;BME280;31212;49.734;8.490;2022-08-02T01:46:56;100724.06;;;17.45;83.58
45467;BME280;31212;49.734;8.490;2022-08-02T01:49:25;100734.84;;;17.31;83.91
45467;BME280;31212;49.734;8.490;2022-08-02T01:51:56;100740.31;;;17.20;84.25
45467;BME280;31212;49.734;8.490;2022-08-02T01:54:56;100740.53;;;17.08;84.90
45467;BME280;31212;49.734;8.490;2022-08-02T01:57:26;100756.38;;;17.02;85.78
45467;BME280;31212;49.734;8.490;2022-08-02T01:59:58;100764.38;;;16.95;86.50
45467;BME280;31212;49.734;8.490;2022-08-02T02:02:27;100762.69;;;16.91;87.19
45467;BME280;31212;49.734;8.490;2022-08-02T02:04:56;100761.00;;;16.86;87.44
45467;BME280;31212;49.734;8.490;2022-08-02T02:07:23;100757.53;;;16.84;88.13
45467;BME280;31212;49.734;8.490;2022-08-02T02:09:51;100762.69;;;16.91;88.49
45467;BME280;31212;49.734;8.490;2022-08-02T02:12:20;100756.66;;;16.85;88.50
45467;BME280;31212;49.734;8.490;2022-08-02T02:14:48;100757.56;;;16.82;88.62
45467;BME280;31212;49.734;8.490;2022-08-02T02:17:17;100761.09;;;16.81;88.37
45467;BME280;31212;49.734;8.490;2022-08-02T02:19:45;100754.91;;;16.84;88.63
45467;BME280;31212;49.734;8.490;2022-08-02T02:22:12;100755.69;;;16.92;88.49
45467;BME280;31212;49.734;8.490;2022-08-02T02:24:39;100755.72;;;16.89;88.73
45467;BME280;31212;49.734;8.490;2022-08-02T02:27:07;100744.41;;;16.85;88.60
45467;BME280;31212;49.734;8.490;2022-08-02T02:29:38;100744.50;;;16.80;88.33
45467;BME280;31212;49.734;8.490;2022-08-02T02:32:09;100737.47;;;16.81;88.97
45467;BME280;31212;49.734;8.490;2022-08-02T02:34:40;100739.16;;;16.85;88.42
45467;BME280;31212;49.734;8.490;2022-08-02T02:37:13;100740.00;;;16.86;88.80
45467;BME280;31212;49.734;8.490;2022-08-02T02:39:43;100742.66;;;16.84;88.93
45467;BME280;31212;49.734;8.490;2022-08-02T02:42:13;100745.25;;;16.87;89.05
45467;BME280;31212;49.734;8.490;2022-08-02T02:44:41;100746.16;;;16.85;88.89
45467;BME280;31212;49.734;8.490;2022-08-02T02:47:09;100748.75;;;16.86;88.88
45467;BME280;31212;49.734;8.490;2022-08-02T02:49:38;100749.66;;;16.85;88.70
45467;BME280;31212;49.734;8.490;2022-08-02T02:52:06;100742.69;;;16.82;88.84
45467;BME280;31212;49.734;8.490;2022-08-02T02:54:34;100748.84;;;16.80;89.07
45467;BME280;31212;49.734;8.490;2022-08-02T02:57:02;100751.50;;;16.78;89.15
45467;BME280;31212;49.734;8.490;2022-08-02T02:59:31;100746.31;;;16.75;89.73
45467;BME280;31212;49.734;8.490;2022-08-02T03:01:58;100747.22;;;16.74;90.06
45467;BME280;31212;49.734;8.490;2022-08-02T03:04:26;100743.66;;;16.77;89.64
45467;BME280;31212;49.734;8.490;2022-08-02T03:06:55;100750.59;;;16.81;90.05
45467;BME280;31212;49.734;8.490;2022-08-02T03:09:21;100751.56;;;16.75;89.92
45467;BME280;31212;49.734;8.490;2022-08-02T03:11:48;100749.78;;;16.79;89.90
45467;BME280;31212;49.734;8.490;2022-08-02T03:14:15;100756.03;;;16.70;89.84
45467;BME280;31212;49.734;8.490;2022-08-02T03:16:45;100754.25;;;16.71;90.00
45467;BME280;31212;49.734;8.490;2022-08-02T03:19:12;100761.28;;;16.69;90.04
45467;BME280;31212;49.734;8.490;2022-08-02T03:21:40;100754.31;;;16.68;90.04
45467;BME280;31212;49.734;8.490;2022-08-02T03:24:09;100758.72;;;16.64;90.01
45467;BME280;31212;49.734;8.490;2022-08-02T03:26:36;100761.41;;;16.61;90.00
45467;BME280;31212;49.734;8.490;2022-08-02T03:29:03;100760.63;;;16.56;90.07
45467;BME280;31212;49.734;8.490;2022-08-02T03:31:29;100758.00;;;16.56;90.46
45467;BME280;31212;49.734;8.490;2022-08-02T03:33:57;100761.53;;;16.55;90.24
45467;BME280;31212;49.734;8.490;2022-08-02T03:36:27;100758.91;;;16.55;90.18
45467;BME280;31212;49.734;8.490;2022-08-02T03:38:55;100757.22;;;16.51;90.39
45467;BME280;31212;49.734;8.490;2022-08-02T03:41:23;100745.88;;;16.48;90.33
45467;BME280;31212;49.734;8.490;2022-08-02T03:43:51;100747.66;;;16.46;90.50
45467;BME280;31212;49.734;8.490;2022-08-02T03:46:20;100758.13;;;16.48;90.69
45467;BME280;31212;49.734;8.490;2022-08-02T03:48:48;100756.41;;;16.47;91.08
45467;BME280;31212;49.734;8.490;2022-08-02T03:51:16;100761.63;;;16.47;91.33
45467;BME280;31212;49.734;8.490;2022-08-02T03:53:43;100766.03;;;16.45;91.14
45467;BME280;31212;49.734;8.490;2022-08-02T03:56:10;100761.59;;;16.48;91.52
45467;BME280;31212;49.734;8.490;2022-08-02T03:58:38;100760.72;;;16.50;91.15
45467;BME280;31212;49.734;8.490;2022-08-02T04:01:05;100759.81;;;16.52;91.01
45467;BME280;31212;49.734;8.490;2022-08-02T04:03:31;100755.41;;;16.54;91.33
45467;BME280;31212;49.734;8.490;2022-08-02T04:05:58;100757.13;;;16.55;90.73
45467;BME280;31212;49.734;8.490;2022-08-02T04:08:24;100754.47;;;16.57;90.97
45467;BME280;31212;49.734;8.490;2022-08-02T04:10:51;100752.72;;;16.59;90.68
45467;BME280;31212;49.734;8.490;2022-08-02T04:13:36;100768.41;;;16.60;90.90
45467;BME280;31212;49.734;8.490;2022-08-02T04:16:08;100758.84;;;16.58;90.83
45467;BME280;31212;49.734;8.490;2022-08-02T04:18:39;100760.59;;;16.57;90.74
45467;BME280;31212;49.734;8.490;2022-08-02T04:21:08;100758.00;;;16.56;90.96
45467;BME280;31212;49.734;8.490;2022-08-02T04:23:38;100769.38;;;16.55;90.46
45467;BME280;31212;49.734;8.490;2022-08-02T04:26:05;100764.16;;;16.53;90.64
45467;BME280;31212;49.734;8.490;2022-08-02T04:28:33;100759.75;;;16.55;90.50
45467;BME280;31212;49.734;8.490;2022-08-02T04:31:04;100757.13;;;16.55;90.42
45467;BME280;31212;49.734;8.490;2022-08-02T04:33:31;100766.75;;;16.53;90.30
45467;BME280;31212;49.734;8.490;2022-08-02T04:35:58;100775.50;;;16.55;91.05
45467;BME280;31212;49.734;8.490;2022-08-02T04:38:24;100768.47;;;16.56;90.82
45467;BME280;31212;49.734;8.490;2022-08-02T04:40:53;100767.53;;;16.61;90.60
45467;BME280;31212;49.734;8.490;2022-08-02T04:43:20;100773.59;;;16.63;90.77
45467;BME280;31212;49.734;8.490;2022-08-02T04:45:50;100763.88;;;16.70;90.36
45467;BME280;31212;49.734;8.490;2022-08-02T04:48:20;100772.44;;;16.80;90.01
45467;BME280;31212;49.734;8.490;2022-08-02T04:50:47;100768.00;;;16.85;89.62
45467;BME280;31212;49.734;8.490;2022-08-02T04:53:13;100773.19;;;16.88;89.56
45467;BME280;31212;49.734;8.490;2022-08-02T04:55:40;100774.09;;;16.87;89.04
45467;BME280;31212;49.734;8.490;2022-08-02T04:58:07;100777.75;;;16.77;88.86
45467;BME280;31212;49.734;8.490;2022-08-02T05:00:34;100778.50;;;16.85;89.23
45467;BME280;31212;49.734;8.490;2022-08-02T05:03:01;100779.28;;;16.92;89.02
45467;BME280;31212;49.734;8.490;2022-08-02T05:05:29;100775.66;;;17.01;88.57
45467;BME280;31212;49.734;8.490;2022-08-02T05:07:55;100779.16;;;17.00;88.37
45467;BME280;31212;49.734;8.490;2022-08-02T05:10:22;100795.59;;;17.09;88.80
45467;BME280;31212;49.734;8.490;2022-08-02T05:12:49;100800.53;;;17.28;88.85
45467;BME280;31212;49.734;8.490;2022-08-02T05:15:17;100795.13;;;17.36;88.20
45467;BME280;31212;49.734;8.490;2022-08-02T05:17:46;100793.25;;;17.41;88.02
45467;BME280;31212;49.734;8.490;2022-08-02T05:20:13;100786.81;;;17.59;87.47
45467;BME280;31212;49.734;8.490;2022-08-02T05:22:41;100774.44;;;17.65;86.99
45467;BME280;31212;49.734;8.490;2022-08-02T05:25:08;100770.88;;;17.66;86.45
45467;BME280;31212;49.734;8.490;2022-08-02T05:27:35;100775.72;;;17.87;86.33
45467;BME280;31212;49.734;8.490;2022-08-02T05:30:03;100770.25;;;17.97;85.60
45467;BME280;31212;49.734;8.490;2022-08-02T05:32:29;100755.88;;;18.15;85.03
45467;BME280;31212;49.734;8.490;2022-08-02T05:34:56;100743.41;;;18.24;84.53
45467;BME280;31212;49.734;8.490;2022-08-02T05:37:22;100747.63;;;18.31;84.35
45467;BME280;31212;49.734;8.490;2022-08-02T05:39:51;100736.75;;;18.45;83.76
45467;BME280;31212;49.734;8.490;2022-08-02T05:42:17;100743.66;;;18.51;83.36
45467;BME280;31212;49.734;8.490;2022-08-02T05:44:44;100738.13;;;18.61;83.15
45467;BME280;31212;49.734;8.490;2022-08-02T05:47:11;100730.72;;;18.77;82.52
45467;BME280;31212;49.734;8.490;2022-08-02T05:49:38;100728.66;;;18.90;82.21
45467;BME280;31212;49.734;8.490;2022-08-02T05:52:09;100711.44;;;19.11;81.25
45467;BME280;31212;49.734;8.490;2022-08-02T05:54:46;100705.56;;;19.33;80.30
45467;BME280;31212;49.734;8.490;2022-08-02T05:57:25;100685.72;;;19.51;79.04
45467;BME280;31212;49.734;8.490;2022-08-02T06:00:01;100654.44;;;19.70;77.54
45467;BME280;31212;49.734;8.490;2022-08-02T06:02:52;100633.31;;;20.00;75.93
45467;BME280;31212;49.734;8.490;2022-08-02T06:05:25;100631.69;;;20.23;75.21
45467;BME280;31212;49.734;8.490;2022-08-02T06:07:54;100603.03;;;20.39;73.92
45467;BME280;31212;49.734;8.490;2022-08-02T06:10:26;100593.72;;;20.54;73.22
45467;BME280;31212;49.734;8.490;2022-08-02T06:13:02;100580.97;;;20.66;72.63
45467;BME280;31212;49.734;8.490;2022-08-02T06:15:31;100579.00;;;20.97;72.27
45467;BME280;31212;49.734;8.490;2022-08-02T06:17:58;100551.06;;;21.15;71.12
45467;BME280;31212;49.734;8.490;2022-08-02T06:20:26;100538.56;;;21.42;70.38
45467;BME280;31212;49.734;8.490;2022-08-02T06:22:54;100514.78;;;21.64;69.29
45467;BME280;31212;49.734;8.490;2022-08-02T06:25:24;100466.13;;;21.91;67.88
45467;BME280;31212;49.734;8.490;2022-08-02T06:27:52;100449.13;;;21.96;66.99
45467;BME280;31212;49.734;8.490;2022-08-02T06:30:20;100457.44;;;22.08;66.72
45467;BME280;31212;49.734;8.490;2022-08-02T06:32:49;100461.50;;;21.96;66.77
45467;BME280;31212;49.734;8.490;2022-08-02T06:35:16;100470.00;;;22.02;66.62
45467;BME280;31212;49.734;8.490;2022-08-02T06:37:51;100444.00;;;21.93;65.87
45467;BME280;31212;49.734;8.490;2022-08-02T06:40:25;100478.34;;;21.93;66.44
45467;BME280;31212;49.734;8.490;2022-08-02T06:42:59;100454.31;;;22.18;65.48
45467;BME280;31212;49.734;8.490;2022-08-02T06:45:35;100446.41;;;22.58;64.94
45467;BME280;31212;49.734;8.490;2022-08-02T06:48:01;100409.91;;;22.84;63.76
45467;BME280;31212;49.734;8.490;2022-08-02T06:50:29;100422.84;;;22.90;63.33
45467;BME280;31212;49.734;8.490;2022-08-02T06:52:56;100428.94;;;22.92;63.13
45467;BME280;31212;49.734;8.490;2022-08-02T06:55:22;100437.84;;;23.09;63.18
45467;BME280;31212;49.734;8.490;2022-08-02T06:57:49;100403.00;;;23.53;62.12
45467;BME280;31212;49.734;8.490;2022-08-02T07:00:15;100352.81;;;23.83;60.57
45467;BME280;31212;49.734;8.490;2022-08-02T07:02:43;100339.53;;;24.66;59.20
45467;BME280;31212;49.734;8.490;2022-08-02T07:05:10;100254.63;;;25.26;56.82
45467;BME280;31212;49.734;8.490;2022-08-02T07:07:37;100233.97;;;26.71;54.47
45467;BME280;31212;49.734;8.490;2022-08-02T07:10:04;100160.75;;;27.53;51.69
45467;BME280;31212;49.734;8.490;2022-08-02T07:12:32;100090.03;;;28.67;48.50
45467;BME280;31212;49.734;8.490;2022-08-02T07:15:00;100094.34;;;30.03;46.59
45467;BME280;31212;49.734;8.490;2022-08-02T07:17:27;100015.00;;;30.75;44.16
45467;BME280;31212;49.734;8.490;2022-08-02T07:19:56;100054.56;;;30.62;44.48
45467;BME280;31212;49.734;8.490;2022-08-02T07:22:22;100014.19;;;31.25;43.18
45467;BME280;31212;49.734;8.490;2022-08-02T07:24:51;100055.72;;;31.00;43.72
45467;BME280;31212;49.734;8.490;2022-08-02T07:27:19;99994.94;;;32.08;41.40
45467;BME280;31212;49.734;8.490;2022-08-02T07:29:45;99957.31;;;31.31;41.22
45467;BME280;31212;49.734;8.490;2022-08-02T07:32:12;99980.75;;;30.79;42.21
45467;BME280;31212;49.734;8.490;2022-08-02T07:34:39;100009.53;;;31.47;41.89
45467;BME280;31212;49.734;8.490;2022-08-02T07:37:07;99925.44;;;32.43;39.28
45467;BME280;31212;49.734;8.490;2022-08-02T07:39:34;99963.75;;;32.07;39.72
45467;BME280;31212;49.734;8.490;2022-08-02T07:42:00;99904.84;;;33.87;37.17
45467;BME280;31212;49.734;8.490;2022-08-02T07:44:27;99867.06;;;34.48;36.53
45467;BME280;31212;49.734;8.490;2022-08-02T07:46:58;99766.03;;;34.69;34.75
45467;BME280;31212;49.734;8.490;2022-08-02T07:49:25;99777.09;;;34.33;34.85
45467;BME280;31212;49.734;8.490;2022-08-02T07:51:51;99772.38;;;35.59;33.88
45467;BME280;31212;49.734;8.490;2022-08-02T07:54:19;99760.88;;;35.65;32.82
45467;BME280;31212;49.734;8.490;2022-08-02T07:56:46;99779.19;;;34.89;33.98
45467;BME280;31212;49.734;8.490;2022-08-02T07:59:12;99744.09;;;35.30;32.58
45467;BME280;31212;49.734;8.490;2022-08-02T08:01:39;99725.06;;;34.32;33.18
45467;BME280;31212;49.734;8.490;2022-08-02T08:04:06;99692.88;;;34.39;32.52
45467;BME280;31212;49.734;8.490;2022-08-02T08:06:33;99743.38;;;35.92;32.09
45467;BME280;31212;49.734;8.490;2022-08-02T08:08:59;99766.16;;;35.25;32.82
45467;BME280;31212;49.734;8.490;2022-08-02T08:11:27;99828.41;;;35.57;33.14
45467;BME280;31212;49.734;8.490;2022-08-02T08:13:54;99755.91;;;35.20;32.85
45467;BME280;31212;49.734;8.490;2022-08-02T08:16:20;99777.28;;;34.48;33.38
45467;BME280;31212;49.734;8.490;2022-08-02T08:18:47;99750.78;;;36.30;31.60
45467;BME280;31212;49.734;8.490;2022-08-02T08:21:13;99607.63;;;36.75;28.85
45467;BME280;31212;49.734;8.490;2022-08-02T08:23:40;99589.31;;;34.58;30.55
45467;BME280;31212;49.734;8.490;2022-08-02T08:26:06;99564.13;;;32.99;31.29
45467;BME280;31212;49.734;8.490;2022-08-02T08:28:34;99681.19;;;35.21;30.95
45467;BME280;31212;49.734;8.490;2022-08-02T08:31:01;99659.22;;;36.35;29.57
45467;BME280;31212;49.734;8.490;2022-08-02T08:33:27;99632.22;;;34.84;29.74
45467;BME280;31212;49.734;8.490;2022-08-02T08:35:54;99637.69;;;35.32;29.34
45467;BME280;31212;49.734;8.490;2022-08-02T08:38:21;99648.28;;;36.66;28.24
45467;BME280;31212;49.734;8.490;2022-08-02T08:40:48;99613.03;;;36.75;27.46
45467;BME280;31212;49.734;8.490;2022-08-02T08:43:15;99591.09;;;37.29;26.82
45467;BME280;31212;49.734;8.490;2022-08-02T08:45:43;99528.47;;;33.48;29.14
45467;BME280;31212;49.734;8.490;2022-08-02T08:48:12;99666.25;;;36.13;28.00
45467;BME280;31212;49.734;8.490;2022-08-02T08:50:45;99606.03;;;36.27;27.21
45467;BME280;31212;49.734;8.490;2022-08-02T08:53:12;99607.22;;;37.52;26.13
45467;BME280;31212;49.734;8.490;2022-08-02T08:55:40;99547.88;;;37.36;25.52
45467;BME280;31212;49.734;8.490;2022-08-02T08:58:06;99470.34;;;37.50;24.58
45467;BME280;31212;49.734;8.490;2022-08-02T09:00:34;99537.63;;;38.75;23.78
45467;BME280;31212;49.734;8.490;2022-08-02T09:03:03;99641.19;;;36.80;26.53
45467;BME280;31212;49.734;8.490;2022-08-02T09:05:33;99577.56;;;37.81;25.07
45467;BME280;31212;49.734;8.490;2022-08-02T09:08:00;99562.44;;;37.72;25.08
45467;BME280;31212;49.734;8.490;2022-08-02T09:10:32;99484.91;;;38.56;23.18
45467;BME280;31212;49.734;8.490;2022-08-02T09:13:09;99441.16;;;39.27;22.27
45467;BME280;31212;49.734;8.490;2022-08-02T09:15:36;99442.00;;;38.24;22.69
45467;BME280;31212;49.734;8.490;2022-08-02T09:18:05;99559.38;;;36.10;25.64
45467;BME280;31212;49.734;8.490;2022-08-02T09:20:32;99558.13;;;36.89;24.91
45467;BME280;31212;49.734;8.490;2022-08-02T09:23:05;99504.63;;;36.31;24.88
45467;BME280;31212;49.734;8.490;2022-08-02T09:25:32;99560.91;;;37.84;24.18
45467;BME280;31212;49.734;8.490;2022-08-02T09:27:59;99630.13;;;38.30;24.46
45467;BME280;31212;49.734;8.490;2022-08-02T09:30:27;99556.28;;;38.98;23.45
45467;BME280;31212;49.734;8.490;2022-08-02T09:32:54;99474.72;;;37.29;23.64
45467;BME280;31212;49.734;8.490;2022-08-02T09:35:32;99572.25;;;38.73;23.48
45467;BME280;31212;49.734;8.490;2022-08-02T09:38:17;99508.72;;;38.25;23.19
45467;BME280;31212;49.734;8.490;2022-08-02T09:40:43;99532.38;;;37.88;23.94
45467;BME280;31212;49.734;8.490;2022-08-02T09:43:10;99669.97;;;38.29;25.20
45467;BME280;31212;49.734;8.490;2022-08-02T09:45:37;99519.16;;;37.57;23.74
45467;BME280;31212;49.734;8.490;2022-08-02T09:48:06;99504.81;;;37.04;24.27
45467;BME280;31212;49.734;8.490;2022-08-02T09:50:34;99504.16;;;37.17;23.62
45467;BME280;31212;49.734;8.490;2022-08-02T09:53:02;99485.19;;;37.32;23.57
45467;BME280;31212;49.734;8.490;2022-08-02T09:55:29;99529.19;;;38.06;23.21
45467;BME280;31212;49.734;8.490;2022-08-02T09:57:56;99633.97;;;38.42;24.33
45467;BME280;31212;49.734;8.490;2022-08-02T10:00:23;99560.69;;;38.64;23.23
45467;BME280;31212;49.734;8.490;2022-08-02T10:03:06;99432.84;;;38.03;21.97
45467;BME280;31212;49.734;8.490;2022-08-02T10:05:53;99550.38;;;38.46;23.41
45467;BME280;31212;49.734;8.490;2022-08-02T10:08:20;99435.59;;;38.87;21.60
45467;BME280;31212;49.734;8.490;2022-08-02T10:10:47;99477.16;;;38.46;22.62
45467;BME280;31212;49.734;8.490;2022-08-02T10:13:25;99576.50;;;39.30;23.00
45467;BME280;31212;49.734;8.490;2022-08-02T10:15:54;99540.25;;;39.65;22.65
45467;BME280;31212;49.734;8.490;2022-08-02T10:18:21;99518.19;;;39.19;22.61
45467;BME280;31212;49.734;8.490;2022-08-02T10:20:49;99523.00;;;38.12;23.45
45467;BME280;31212;49.734;8.490;2022-08-02T10:23:18;99632.84;;;38.30;24.89
45467;BME280;31212;49.734;8.490;2022-08-02T10:25:47;99531.06;;;38.62;22.94
45467;BME280;31212;49.734;8.490;2022-08-02T10:28:17;99523.03;;;38.76;22.86
45467;BME280;31212;49.734;8.490;2022-08-02T10:30:46;99523.09;;;38.54;23.15
45467;BME280;31212;49.734;8.490;2022-08-02T10:33:16;99554.31;;;38.72;23.26
45467;BME280;31212;49.734;8.490;2022-08-02T10:35:44;99527.25;;;38.85;22.69
45467;BME280;31212;49.734;8.490;2022-08-02T10:38:16;99617.94;;;39.04;23.80
45467;BME280;31212;49.734;8.490;2022-08-02T10:40:45;99530.00;;;39.53;22.44
45467;BME280;31212;49.734;8.490;2022-08-02T10:43:12;99577.16;;;39.39;22.90
45467;BME280;31212;49.734;8.490;2022-08-02T10:46:23;99530.16;;;40.73;21.38
45467;BME280;31212;49.734;8.490;2022-08-02T10:49:10;99488.38;;;38.78;22.66
45467;BME280;31212;49.734;8.490;2022-08-02T10:51:57;99481.78;;;40.75;20.60
45467;BME280;31212;49.734;8.490;2022-08-02T10:54:34;99458.38;;;40.74;20.87
45467;BME280;31212;49.734;8.490;2022-08-02T10:57:01;99503.50;;;39.82;22.33
45467;BME280;31212;49.734;8.490;2022-08-02T10:59:29;99459.66;;;38.97;22.31
45467;BME280;31212;49.734;8.490;2022-08-02T11:01:58;99512.66;;;38.86;23.06
45467;BME280;31212;49.734;8.490;2022-08-02T11:04:29;99532.03;;;38.83;23.14
45467;BME280;31212;49.734;8.490;2022-08-02T11:07:06;99569.34;;;40.51;21.88
45467;BME280;31212;49.734;8.490;2022-08-02T11:09:34;99429.28;;;39.42;21.53
45467;BME280;31212;49.734;8.490;2022-08-02T11:12:03;99581.59;;;39.53;22.91
45467;BME280;31212;49.734;8.490;2022-08-02T11:14:31;99480.91;;;40.09;21.61
45467;BME280;31212;49.734;8.490;2022-08-02T11:17:10;99482.19;;;39.79;21.77
45467;BME280;31212;49.734;8.490;2022-08-02T11:20:15;99525.44;;;39.81;22.64
45467;BME280;31212;49.734;8.490;2022-08-02T11:22:43;99546.13;;;38.36;23.77
45467;BME280;31212;49.734;8.490;2022-08-02T11:25:30;99528.47;;;38.19;23.49
45467;BME280;31212;49.734;8.490;2022-08-02T11:27:59;99532.50;;;38.58;23.34
45467;BME280;31212;49.734;8.490;2022-08-02T11:30:26;99482.34;;;37.41;23.91
45467;BME280;31212;49.734;8.490;2022-08-02T11:32:55;99555.91;;;38.09;24.01
45467;BME280;31212;49.734;8.490;2022-08-02T11:35:22;99569.97;;;37.98;24.23
45467;BME280;31212;49.734;8.490;2022-08-02T11:37:56;99549.38;;;37.60;24.50
45467;BME280;31212;49.734;8.490;2022-08-02T11:40:23;99575.34;;;37.33;25.13
45467;BME280;31212;49.734;8.490;2022-08-02T11:42:51;99538.31;;;37.03;24.98
45467;BME280;31212;49.734;8.490;2022-08-02T11:45:23;99554.16;;;36.47;25.30
45467;BME280;31212;49.734;8.490;2022-08-02T11:47:52;99525.00;;;35.58;25.98
45467;BME280;31212;49.734;8.490;2022-08-02T11:50:19;99578.34;;;36.25;25.94
45467;BME280;31212;49.734;8.490;2022-08-02T11:52:50;99550.34;;;35.57;26.19
45467;BME280;31212;49.734;8.490;2022-08-02T11:55:25;99556.38;;;35.35;25.81
45467;BME280;31212;49.734;8.490;2022-08-02T11:57:58;99587.22;;;35.64;26.51
45467;BME280;31212;49.734;8.490;2022-08-02T12:00:24;99584.19;;;35.67;26.09
45467;BME280;31212;49.734;8.490;2022-08-02T12:02:51;99577.47;;;34.84;26.63
45467;BME280;31212;49.734;8.490;2022-08-02T12:05:19;99619.94;;;33.99;28.01
45467;BME280;31212;49.734;8.490;2022-08-02T12:07:50;99609.78;;;33.26;28.41
45467;BME280;31212;49.734;8.490;2022-08-02T12:10:19;99640.31;;;33.08;28.73
45467;BME280;31212;49.734;8.490;2022-08-02T12:12:47;99668.53;;;33.39;28.86
45467;BME280;31212;49.734;8.490;2022-08-02T12:15:27;99606.00;;;33.36;28.06
45467;BME280;31212;49.734;8.490;2022-08-02T12:17:54;99504.78;;;33.77;25.77
45467;BME280;31212;49.734;8.490;2022-08-02T12:20:38;99608.81;;;34.02;27.13
45467;BME280;31212;49.734;8.490;2022-08-02T12:23:05;99644.69;;;34.28;27.63
45467;BME280;31212;49.734;8.490;2022-08-02T12:25:32;99592.00;;;34.17;26.85
45467;BME280;31212;49.734;8.490;2022-08-02T12:28:16;99638.66;;;34.50;27.13
45467;BME280;31212;49.734;8.490;2022-08-02T12:30:54;99603.13;;;34.39;26.71
45467;BME280;31212;49.734;8.490;2022-08-02T12:33:23;99582.75;;;34.44;26.43
45467;BME280;31212;49.734;8.490;2022-08-02T12:35:50;99603.13;;;34.30;26.76
45467;BME280;31212;49.734;8.490;2022-08-02T12:38:17;99630.88;;;34.23;27.57
45467;BME280;31212;49.734;8.490;2022-08-02T12:40:44;99655.69;;;34.34;27.64
45467;BME280;31212;49.734;8.490;2022-08-02T12:43:17;99578.91;;;34.30;26.48
45467;BME280;31212;49.734;8.490;2022-08-02T12:45:46;99576.13;;;34.63;26.15
45467;BME280;31212;49.734;8.490;2022-08-02T12:48:15;99580.03;;;34.61;26.39
45467;BME280;31212;49.734;8.490;2022-08-02T12:50:43;99534.59;;;34.33;26.23
45467;BME280;31212;49.734;8.490;2022-08-02T12:53:11;99517.69;;;34.64;25.43
45467;BME280;31212;49.734;8.490;2022-08-02T12:55:47;99596.16;;;34.77;26.70
45467;BME280;31212;49.734;8.490;2022-08-02T12:58:14;99579.41;;;34.34;26.83
45467;BME280;31212;49.734;8.490;2022-08-02T13:00:41;99501.06;;;34.44;25.40
45467;BME280;31212;49.734;8.490;2022-08-02T13:03:08;99531.97;;;34.73;25.47
45467;BME280;31212;49.734;8.490;2022-08-02T13:05:36;99509.63;;;34.56;25.48